sensor_id;sensor_type;location;lat;lon;timestamp;P1;durP1;ratioP1;P2;durP2;ratioP2
5662;SDS011;2854;42.692;23.364;2023-03-31T00:01:35;4.37;;;3.57;;
5662;SDS011;2854;42.692;23.364;2023-03-31T00:04:05;3.77;;;3.47;;
5662;SDS011;2854;42.692;23.364;2023-03-31T00:06:33;8.77;;;3.93;;
5662;SDS011;2854;42.692;23.364;2023-03-31T00:09:05;5.23;;;3.60;;
5662;SDS011;2854;42.692;23.364;2023-03-31T00:11:31;5.23;;;3.77;;
5662;SDS011;2854;42.692;23.364;2023-03-31T00:13:56;5.53;;;3.77;;
5662;SDS011;2854;42.692;23.364;2023-03-31T00:16:22;5.80;;;3.90;;
5662;SDS011;2854;42.692;23.364;2023-03-31T00:18:47;4.27;;;3.20;;
5662;SDS011;2854;42.692;23.364;2023-03-31T00:21:19;7.47;;;4.77;;
5662;SDS011;2854;42.692;23.364;2023-03-31T00:23:54;7.53;;;3.50;;
5662;SDS011;2854;42.692;23.364;2023-03-31T00:26:19;6.13;;;3.90;;
5662;SDS011;2854;42.692;23.364;2023-03-31T00:28:46;3.60;;;3.20;;
5662;SDS011;2854;42.692;23.364;2023-03-31T00:31:11;8.00;;;4.30;;
5662;SDS011;2854;42.692;23.364;2023-03-31T00:33:37;14.00;;;5.57;;
5662;SDS011;2854;42.692;23.364;2023-03-31T00:36:02;9.27;;;5.00;;
5662;SDS011;2854;42.692;23.364;2023-03-31T00:38:30;7.47;;;4.60;;
5662;SDS011;2854;42.692;23.364;2023-03-31T00:40:55;10.20;;;6.00;;
5662;SDS011;2854;42.692;23.364;2023-03-31T00:45:49;10.50;;;6.67;;
5662;SDS011;2854;42.692;23.364;2023-03-31T00:48:15;8.50;;;4.77;;
5662;SDS011;2854;42.692;23.364;2023-03-31T00:50:44;10.87;;;5.60;;
5662;SDS011;2854;42.692;23.364;2023-03-31T00:53:12;16.03;;;6.80;;
5662;SDS011;2854;42.692;23.364;2023-03-31T00:55:42;8.57;;;5.20;;
5662;SDS011;2854;42.692;23.364;2023-03-31T00:58:09;11.20;;;7.00;;
5662;SDS011;2854;42.692;23.364;2023-03-31T01:00:38;7.83;;;5.27;;
5662;SDS011;2854;42.692;23.364;2023-03-31T01:03:05;16.83;;;6.57;;
5662;SDS011;2854;42.692;23.364;2023-03-31T01:05:33;6.70;;;5.60;;
5662;SDS011;2854;42.692;23.364;2023-03-31T01:08:00;10.30;;;6.97;;
5662;SDS011;2854;42.692;23.364;2023-03-31T01:10:26;11.20;;;7.20;;
5662;SDS011;2854;42.692;23.364;2023-03-31T01:12:53;8.27;;;6.10;;
5662;SDS011;2854;42.692;23.364;2023-03-31T01:15:19;9.10;;;6.60;;
5662;SDS011;2854;42.692;23.364;2023-03-31T01:17:44;13.43;;;6.90;;
5662;SDS011;2854;42.692;23.364;2023-03-31T01:28:19;11.10;;;6.10;;
5662;SDS011;2854;42.692;23.364;2023-03-31T01:30:58;9.00;;;5.73;;
5662;SDS011;2854;42.692;23.364;2023-03-31T01:41:34;19.23;;;9.77;;
5662;SDS011;2854;42.692;23.364;2023-03-31T01:44:20;19.07;;;8.47;;
5662;SDS011;2854;42.692;23.364;2023-03-31T01:52:03;10.10;;;6.83;;
5662;SDS011;2854;42.692;23.364;2023-03-31T01:54:45;8.87;;;5.53;;
5662;SDS011;2854;42.692;23.364;2023-03-31T01:59:51;7.73;;;5.60;;
5662;SDS011;2854;42.692;23.364;2023-03-31T02:02:21;8.30;;;5.90;;
5662;SDS011;2854;42.692;23.364;2023-03-31T02:04:53;7.63;;;6.20;;
5662;SDS011;2854;42.692;23.364;2023-03-31T02:07:22;7.30;;;5.53;;
5662;SDS011;2854;42.692;23.364;2023-03-31T02:09:50;12.23;;;5.90;;
5662;SDS011;2854;42.692;23.364;2023-03-31T02:12:17;14.30;;;7.13;;
5662;SDS011;2854;42.692;23.364;2023-03-31T02:14:45;11.97;;;6.60;;
5662;SDS011;2854;42.692;23.364;2023-03-31T02:17:15;11.53;;;7.30;;
5662;SDS011;2854;42.692;23.364;2023-03-31T02:19:42;9.10;;;6.20;;
5662;SDS011;2854;42.692;23.364;2023-03-31T02:22:09;12.30;;;6.90;;
5662;SDS011;2854;42.692;23.364;2023-03-31T02:24:35;13.33;;;6.50;;
5662;SDS011;2854;42.692;23.364;2023-03-31T02:27:13;9.13;;;6.47;;
5662;SDS011;2854;42.692;23.364;2023-03-31T02:29:40;7.47;;;5.20;;
5662;SDS011;2854;42.692;23.364;2023-03-31T02:32:09;13.50;;;6.40;;
5662;SDS011;2854;42.692;23.364;2023-03-31T02:34:36;9.30;;;5.50;;
5662;SDS011;2854;42.692;23.364;2023-03-31T02:37:01;10.03;;;5.63;;
5662;SDS011;2854;42.692;23.364;2023-03-31T02:39:28;9.20;;;6.03;;
5662;SDS011;2854;42.692;23.364;2023-03-31T02:41:54;9.90;;;5.20;;
5662;SDS011;2854;42.692;23.364;2023-03-31T02:44:20;22.20;;;5.93;;
5662;SDS011;2854;42.692;23.364;2023-03-31T02:46:45;17.03;;;6.23;;
5662;SDS011;2854;42.692;23.364;2023-03-31T02:49:11;5.67;;;4.83;;
5662;SDS011;2854;42.692;23.364;2023-03-31T02:59:34;11.83;;;5.90;;
5662;SDS011;2854;42.692;23.364;2023-03-31T03:02:11;6.87;;;4.90;;
5662;SDS011;2854;42.692;23.364;2023-03-31T03:09:56;5.07;;;3.90;;
5662;SDS011;2854;42.692;23.364;2023-03-31T03:17:34;4.93;;;4.10;;
5662;SDS011;2854;42.692;23.364;2023-03-31T03:20:01;4.57;;;2.80;;
5662;SDS011;2854;42.692;23.364;2023-03-31T03:22:31;7.97;;;3.80;;
5662;SDS011;2854;42.692;23.364;2023-03-31T03:24:57;6.27;;;3.87;;
5662;SDS011;2854;42.692;23.364;2023-03-31T03:27:22;6.20;;;4.13;;
5662;SDS011;2854;42.692;23.364;2023-03-31T03:29:47;7.47;;;4.13;;
5662;SDS011;2854;42.692;23.364;2023-03-31T03:32:13;6.23;;;3.47;;
5662;SDS011;2854;42.692;23.364;2023-03-31T03:34:38;2.20;;;2.10;;
5662;SDS011;2854;42.692;23.364;2023-03-31T03:37:03;5.57;;;2.70;;
5662;SDS011;2854;42.692;23.364;2023-03-31T03:39:29;6.33;;;2.57;;
5662;SDS011;2854;42.692;23.364;2023-03-31T03:41:54;2.33;;;2.00;;
5662;SDS011;2854;42.692;23.364;2023-03-31T03:44:20;4.37;;;3.30;;
5662;SDS011;2854;42.692;23.364;2023-03-31T03:46:45;3.80;;;2.67;;
5662;SDS011;2854;42.692;23.364;2023-03-31T03:49:10;2.33;;;2.03;;
5662;SDS011;2854;42.692;23.364;2023-03-31T03:51:36;4.43;;;2.20;;
5662;SDS011;2854;42.692;23.364;2023-03-31T03:54:01;2.50;;;2.30;;
5662;SDS011;2854;42.692;23.364;2023-03-31T03:56:26;3.23;;;2.07;;
5662;SDS011;2854;42.692;23.364;2023-03-31T03:58:52;3.47;;;2.20;;
5662;SDS011;2854;42.692;23.364;2023-03-31T04:01:17;2.20;;;2.00;;
5662;SDS011;2854;42.692;23.364;2023-03-31T04:03:43;2.27;;;2.13;;
5662;SDS011;2854;42.692;23.364;2023-03-31T04:06:08;2.13;;;1.90;;
5662;SDS011;2854;42.692;23.364;2023-03-31T04:08:33;2.20;;;2.00;;
5662;SDS011;2854;42.692;23.364;2023-03-31T04:10:58;2.23;;;2.07;;
5662;SDS011;2854;42.692;23.364;2023-03-31T04:13:24;1.87;;;1.77;;
5662;SDS011;2854;42.692;23.364;2023-03-31T04:15:49;1.57;;;1.47;;
5662;SDS011;2854;42.692;23.364;2023-03-31T04:18:14;2.43;;;2.33;;
5662;SDS011;2854;42.692;23.364;2023-03-31T04:20:47;2.90;;;2.43;;
5662;SDS011;2854;42.692;23.364;2023-03-31T04:23:27;1.93;;;1.83;;
5662;SDS011;2854;42.692;23.364;2023-03-31T04:25:53;5.10;;;2.73;;
5662;SDS011;2854;42.692;23.364;2023-03-31T04:28:18;4.30;;;2.47;;
5662;SDS011;2854;42.692;23.364;2023-03-31T04:30:44;2.73;;;2.50;;
5662;SDS011;2854;42.692;23.364;2023-03-31T04:33:09;3.43;;;2.50;;
5662;SDS011;2854;42.692;23.364;2023-03-31T04:35:34;3.47;;;3.13;;
5662;SDS011;2854;42.692;23.364;2023-03-31T04:38:17;9.13;;;3.03;;
5662;SDS011;2854;42.692;23.364;2023-03-31T04:40:43;2.60;;;2.50;;
5662;SDS011;2854;42.692;23.364;2023-03-31T04:43:08;5.53;;;3.70;;
5662;SDS011;2854;42.692;23.364;2023-03-31T04:45:34;12.40;;;4.67;;
5662;SDS011;2854;42.692;23.364;2023-03-31T04:47:59;10.73;;;4.97;;
5662;SDS011;2854;42.692;23.364;2023-03-31T04:50:25;3.87;;;3.40;;
5662;SDS011;2854;42.692;23.364;2023-03-31T04:52:50;4.60;;;2.67;;
5662;SDS011;2854;42.692;23.364;2023-03-31T04:55:15;4.60;;;2.80;;
5662;SDS011;2854;42.692;23.364;2023-03-31T04:57:40;3.60;;;3.30;;
5662;SDS011;2854;42.692;23.364;2023-03-31T05:00:06;4.00;;;3.50;;
5662;SDS011;2854;42.692;23.364;2023-03-31T05:02:32;13.30;;;9.07;;
5662;SDS011;2854;42.692;23.364;2023-03-31T05:04:57;10.83;;;3.70;;
5662;SDS011;2854;42.692;23.364;2023-03-31T05:07:22;10.50;;;5.47;;
5662;SDS011;2854;42.692;23.364;2023-03-31T05:09:48;7.57;;;5.77;;
5662;SDS011;2854;42.692;23.364;2023-03-31T05:12:13;6.10;;;5.23;;
5662;SDS011;2854;42.692;23.364;2023-03-31T05:14:38;10.77;;;6.20;;
5662;SDS011;2854;42.692;23.364;2023-03-31T05:17:03;9.70;;;6.50;;
5662;SDS011;2854;42.692;23.364;2023-03-31T05:19:29;11.83;;;6.77;;
5662;SDS011;2854;42.692;23.364;2023-03-31T05:21:54;9.93;;;5.67;;
5662;SDS011;2854;42.692;23.364;2023-03-31T05:24:19;39.97;;;11.90;;
5662;SDS011;2854;42.692;23.364;2023-03-31T05:26:45;16.57;;;7.90;;
5662;SDS011;2854;42.692;23.364;2023-03-31T05:29:15;15.00;;;8.17;;
5662;SDS011;2854;42.692;23.364;2023-03-31T05:31:41;17.07;;;7.07;;
5662;SDS011;2854;42.692;23.364;2023-03-31T05:34:06;24.77;;;9.37;;
5662;SDS011;2854;42.692;23.364;2023-03-31T05:36:31;12.67;;;8.33;;
5662;SDS011;2854;42.692;23.364;2023-03-31T05:38:56;22.63;;;7.13;;
5662;SDS011;2854;42.692;23.364;2023-03-31T05:41:22;18.73;;;10.57;;
5662;SDS011;2854;42.692;23.364;2023-03-31T05:43:47;21.33;;;10.40;;
5662;SDS011;2854;42.692;23.364;2023-03-31T05:46:12;12.93;;;6.60;;
5662;SDS011;2854;42.692;23.364;2023-03-31T05:48:37;10.07;;;5.57;;
5662;SDS011;2854;42.692;23.364;2023-03-31T05:51:03;8.60;;;5.57;;
5662;SDS011;2854;42.692;23.364;2023-03-31T05:53:28;6.63;;;4.50;;
5662;SDS011;2854;42.692;23.364;2023-03-31T05:55:57;7.13;;;4.50;;
5662;SDS011;2854;42.692;23.364;2023-03-31T05:58:23;6.20;;;4.83;;
5662;SDS011;2854;42.692;23.364;2023-03-31T06:00:49;9.07;;;6.53;;
5662;SDS011;2854;42.692;23.364;2023-03-31T06:03:17;8.60;;;7.60;;
5662;SDS011;2854;42.692;23.364;2023-03-31T06:05:46;11.87;;;8.80;;
5662;SDS011;2854;42.692;23.364;2023-03-31T06:08:11;14.13;;;7.43;;
5662;SDS011;2854;42.692;23.364;2023-03-31T06:10:37;6.40;;;5.53;;
5662;SDS011;2854;42.692;23.364;2023-03-31T06:13:02;4.97;;;4.00;;
5662;SDS011;2854;42.692;23.364;2023-03-31T06:15:27;6.07;;;3.57;;
5662;SDS011;2854;42.692;23.364;2023-03-31T06:17:53;5.80;;;3.73;;
5662;SDS011;2854;42.692;23.364;2023-03-31T06:20:18;5.73;;;2.63;;
5662;SDS011;2854;42.692;23.364;2023-03-31T06:22:45;6.70;;;3.27;;
5662;SDS011;2854;42.692;23.364;2023-03-31T06:25:10;8.30;;;3.03;;
5662;SDS011;2854;42.692;23.364;2023-03-31T06:27:35;5.83;;;3.20;;
5662;SDS011;2854;42.692;23.364;2023-03-31T06:30:00;4.50;;;3.93;;
5662;SDS011;2854;42.692;23.364;2023-03-31T06:32:26;2.53;;;2.33;;
5662;SDS011;2854;42.692;23.364;2023-03-31T06:34:51;8.83;;;3.83;;
5662;SDS011;2854;42.692;23.364;2023-03-31T06:37:16;5.93;;;4.10;;
5662;SDS011;2854;42.692;23.364;2023-03-31T06:39:41;4.50;;;4.13;;
5662;SDS011;2854;42.692;23.364;2023-03-31T06:42:08;10.30;;;6.17;;
5662;SDS011;2854;42.692;23.364;2023-03-31T06:44:33;3.90;;;3.50;;
5662;SDS011;2854;42.692;23.364;2023-03-31T06:46:59;7.67;;;4.83;;
5662;SDS011;2854;42.692;23.364;2023-03-31T06:49:24;3.73;;;3.30;;
5662;SDS011;2854;42.692;23.364;2023-03-31T06:51:49;5.50;;;4.47;;
5662;SDS011;2854;42.692;23.364;2023-03-31T06:54:15;8.47;;;4.90;;
5662;SDS011;2854;42.692;23.364;2023-03-31T06:56:40;5.07;;;4.30;;
5662;SDS011;2854;42.692;23.364;2023-03-31T06:59:05;7.23;;;4.13;;
5662;SDS011;2854;42.692;23.364;2023-03-31T07:01:31;4.70;;;4.30;;
5662;SDS011;2854;42.692;23.364;2023-03-31T07:03:56;7.90;;;4.20;;
5662;SDS011;2854;42.692;23.364;2023-03-31T07:06:21;4.17;;;3.87;;
5662;SDS011;2854;42.692;23.364;2023-03-31T07:08:46;5.33;;;4.00;;
5662;SDS011;2854;42.692;23.364;2023-03-31T07:11:12;5.33;;;4.10;;
5662;SDS011;2854;42.692;23.364;2023-03-31T07:13:37;3.87;;;3.50;;
5662;SDS011;2854;42.692;23.364;2023-03-31T07:16:02;6.37;;;3.47;;
5662;SDS011;2854;42.692;23.364;2023-03-31T07:18:29;4.97;;;3.63;;
5662;SDS011;2854;42.692;23.364;2023-03-31T07:20:56;3.43;;;3.13;;
5662;SDS011;2854;42.692;23.364;2023-03-31T07:23:21;4.03;;;3.13;;
5662;SDS011;2854;42.692;23.364;2023-03-31T07:25:47;11.33;;;3.53;;
5662;SDS011;2854;42.692;23.364;2023-03-31T07:28:12;2.77;;;2.57;;
5662;SDS011;2854;42.692;23.364;2023-03-31T07:30:38;3.43;;;3.13;;
5662;SDS011;2854;42.692;23.364;2023-03-31T07:33:04;2.87;;;2.67;;
5662;SDS011;2854;42.692;23.364;2023-03-31T07:35:29;4.83;;;3.40;;
5662;SDS011;2854;42.692;23.364;2023-03-31T07:37:54;5.87;;;3.37;;
5662;SDS011;2854;42.692;23.364;2023-03-31T07:40:21;6.90;;;2.57;;
5662;SDS011;2854;42.692;23.364;2023-03-31T07:42:47;2.63;;;2.40;;
5662;SDS011;2854;42.692;23.364;2023-03-31T07:45:13;4.20;;;2.40;;
5662;SDS011;2854;42.692;23.364;2023-03-31T07:47:38;4.07;;;2.50;;
5662;SDS011;2854;42.692;23.364;2023-03-31T07:50:04;4.47;;;2.40;;
5662;SDS011;2854;42.692;23.364;2023-03-31T07:52:30;2.93;;;2.23;;
5662;SDS011;2854;42.692;23.364;2023-03-31T07:54:55;2.33;;;2.03;;
5662;SDS011;2854;42.692;23.364;2023-03-31T07:57:20;2.87;;;2.63;;
5662;SDS011;2854;42.692;23.364;2023-03-31T07:59:46;2.63;;;2.40;;
5662;SDS011;2854;42.692;23.364;2023-03-31T08:02:11;4.33;;;2.57;;
5662;SDS011;2854;42.692;23.364;2023-03-31T08:04:37;3.47;;;2.67;;
5662;SDS011;2854;42.692;23.364;2023-03-31T08:07:03;2.40;;;1.97;;
5662;SDS011;2854;42.692;23.364;2023-03-31T08:09:28;3.60;;;2.10;;
5662;SDS011;2854;42.692;23.364;2023-03-31T08:11:54;2.17;;;2.03;;
5662;SDS011;2854;42.692;23.364;2023-03-31T08:14:20;2.33;;;2.13;;
5662;SDS011;2854;42.692;23.364;2023-03-31T08:16:45;4.37;;;2.80;;
5662;SDS011;2854;42.692;23.364;2023-03-31T08:19:10;2.20;;;1.83;;
5662;SDS011;2854;42.692;23.364;2023-03-31T08:21:36;3.10;;;1.90;;
5662;SDS011;2854;42.692;23.364;2023-03-31T08:24:01;10.83;;;2.43;;
5662;SDS011;2854;42.692;23.364;2023-03-31T08:26:26;1.40;;;1.30;;
5662;SDS011;2854;42.692;23.364;2023-03-31T08:28:52;3.30;;;3.00;;
5662;SDS011;2854;42.692;23.364;2023-03-31T08:31:18;4.77;;;1.67;;
5662;SDS011;2854;42.692;23.364;2023-03-31T08:33:44;2.40;;;2.30;;
5662;SDS011;2854;42.692;23.364;2023-03-31T08:36:10;1.77;;;1.67;;
5662;SDS011;2854;42.692;23.364;2023-03-31T08:38:36;2.57;;;1.50;;
5662;SDS011;2854;42.692;23.364;2023-03-31T08:41:03;3.00;;;1.43;;
5662;SDS011;2854;42.692;23.364;2023-03-31T08:43:31;3.77;;;1.70;;
5662;SDS011;2854;42.692;23.364;2023-03-31T08:45:57;1.60;;;1.50;;
5662;SDS011;2854;42.692;23.364;2023-03-31T08:51:09;1.60;;;1.50;;
5662;SDS011;2854;42.692;23.364;2023-03-31T08:53:40;2.37;;;2.17;;
5662;SDS011;2854;42.692;23.364;2023-03-31T08:56:08;2.23;;;1.47;;
5662;SDS011;2854;42.692;23.364;2023-03-31T08:58:44;2.60;;;1.10;;
5662;SDS011;2854;42.692;23.364;2023-03-31T09:01:25;2.50;;;1.30;;
5662;SDS011;2854;42.692;23.364;2023-03-31T09:07:04;1.40;;;1.30;;
5662;SDS011;2854;42.692;23.364;2023-03-31T09:12:22;1.80;;;1.30;;
5662;SDS011;2854;42.692;23.364;2023-03-31T09:14:56;4.50;;;1.47;;
5662;SDS011;2854;42.692;23.364;2023-03-31T09:17:26;5.27;;;1.30;;
5662;SDS011;2854;42.692;23.364;2023-03-31T09:20:03;2.30;;;1.73;;
5662;SDS011;2854;42.692;23.364;2023-03-31T09:22:40;2.33;;;2.03;;
5662;SDS011;2854;42.692;23.364;2023-03-31T09:25:11;4.20;;;1.70;;
5662;SDS011;2854;42.692;23.364;2023-03-31T09:27:38;1.27;;;1.17;;
5662;SDS011;2854;42.692;23.364;2023-03-31T09:30:21;8.73;;;2.77;;
5662;SDS011;2854;42.692;23.364;2023-03-31T09:32:48;3.20;;;1.23;;
5662;SDS011;2854;42.692;23.364;2023-03-31T09:37:41;5.03;;;1.63;;
5662;SDS011;2854;42.692;23.364;2023-03-31T09:40:18;3.23;;;1.40;;
5662;SDS011;2854;42.692;23.364;2023-03-31T09:42:47;1.60;;;1.40;;
5662;SDS011;2854;42.692;23.364;2023-03-31T09:45:14;1.30;;;1.20;;
5662;SDS011;2854;42.692;23.364;2023-03-31T09:47:41;1.30;;;1.17;;
5662;SDS011;2854;42.692;23.364;2023-03-31T09:50:08;1.37;;;1.27;;
5662;SDS011;2854;42.692;23.364;2023-03-31T09:52:35;1.23;;;1.13;;
5662;SDS011;2854;42.692;23.364;2023-03-31T09:55:03;2.63;;;2.27;;
5662;SDS011;2854;42.692;23.364;2023-03-31T09:57:34;2.53;;;1.53;;
5662;SDS011;2854;42.692;23.364;2023-03-31T10:02:37;3.60;;;1.20;;
5662;SDS011;2854;42.692;23.364;2023-03-31T10:05:04;1.23;;;1.10;;
5662;SDS011;2854;42.692;23.364;2023-03-31T10:07:30;2.13;;;1.50;;
5662;SDS011;2854;42.692;23.364;2023-03-31T10:09:56;1.73;;;1.37;;
5662;SDS011;2854;42.692;23.364;2023-03-31T10:12:25;4.73;;;1.37;;
5662;SDS011;2854;42.692;23.364;2023-03-31T10:14:53;3.33;;;1.13;;
5662;SDS011;2854;42.692;23.364;2023-03-31T10:17:19;1.50;;;1.40;;
5662;SDS011;2854;42.692;23.364;2023-03-31T10:19:49;1.43;;;1.03;;
5662;SDS011;2854;42.692;23.364;2023-03-31T10:22:16;2.80;;;1.03;;
5662;SDS011;2854;42.692;23.364;2023-03-31T10:24:50;1.37;;;1.27;;
5662;SDS011;2854;42.692;23.364;2023-03-31T10:29:53;1.30;;;1.20;;
5662;SDS011;2854;42.692;23.364;2023-03-31T10:32:23;1.20;;;1.10;;
5662;SDS011;2854;42.692;23.364;2023-03-31T10:34:49;2.60;;;1.13;;
5662;SDS011;2854;42.692;23.364;2023-03-31T10:37:16;1.77;;;1.30;;
5662;SDS011;2854;42.692;23.364;2023-03-31T10:39:41;2.27;;;1.40;;
5662;SDS011;2854;42.692;23.364;2023-03-31T10:42:07;2.00;;;1.20;;
5662;SDS011;2854;42.692;23.364;2023-03-31T10:44:34;1.97;;;1.23;;
5662;SDS011;2854;42.692;23.364;2023-03-31T10:47:20;1.40;;;1.30;;
5662;SDS011;2854;42.692;23.364;2023-03-31T10:49:50;3.53;;;1.17;;
5662;SDS011;2854;42.692;23.364;2023-03-31T10:52:20;2.30;;;1.43;;
5662;SDS011;2854;42.692;23.364;2023-03-31T10:54:52;8.60;;;1.50;;
5662;SDS011;2854;42.692;23.364;2023-03-31T10:57:18;2.20;;;1.57;;
5662;SDS011;2854;42.692;23.364;2023-03-31T10:59:52;1.70;;;1.60;;
5662;SDS011;2854;42.692;23.364;2023-03-31T11:10:39;2.70;;;1.20;;
5662;SDS011;2854;42.692;23.364;2023-03-31T11:23:39;2.53;;;1.30;;
5662;SDS011;2854;42.692;23.364;2023-03-31T11:26:08;1.63;;;1.37;;
5662;SDS011;2854;42.692;23.364;2023-03-31T11:28:49;2.93;;;1.20;;
5662;SDS011;2854;42.692;23.364;2023-03-31T11:41:10;3.73;;;1.83;;
5662;SDS011;2854;42.692;23.364;2023-03-31T11:46:10;2.43;;;1.50;;
5662;SDS011;2854;42.692;23.364;2023-03-31T11:48:39;6.57;;;1.47;;
5662;SDS011;2854;42.692;23.364;2023-03-31T11:51:06;3.43;;;1.20;;
5662;SDS011;2854;42.692;23.364;2023-03-31T11:53:35;1.53;;;1.43;;
5662;SDS011;2854;42.692;23.364;2023-03-31T11:56:01;1.53;;;1.43;;
5662;SDS011;2854;42.692;23.364;2023-03-31T12:06:08;2.70;;;1.33;;
5662;SDS011;2854;42.692;23.364;2023-03-31T12:14:00;3.03;;;1.70;;
5662;SDS011;2854;42.692;23.364;2023-03-31T12:16:42;1.20;;;1.10;;
5662;SDS011;2854;42.692;23.364;2023-03-31T12:21:46;1.40;;;1.30;;
5662;SDS011;2854;42.692;23.364;2023-03-31T12:24:13;1.93;;;1.30;;
5662;SDS011;2854;42.692;23.364;2023-03-31T12:31:48;1.20;;;1.10;;
5662;SDS011;2854;42.692;23.364;2023-03-31T12:34:15;1.50;;;1.20;;
5662;SDS011;2854;42.692;23.364;2023-03-31T12:37:01;3.87;;;1.83;;
5662;SDS011;2854;42.692;23.364;2023-03-31T12:52:10;1.67;;;1.40;;
5662;SDS011;2854;42.692;23.364;2023-03-31T12:57:28;2.30;;;1.00;;
5662;SDS011;2854;42.692;23.364;2023-03-31T13:00:11;1.70;;;1.43;;
5662;SDS011;2854;42.692;23.364;2023-03-31T13:02:41;1.73;;;1.33;;
5662;SDS011;2854;42.692;23.364;2023-03-31T13:07:50;1.67;;;1.10;;
5662;SDS011;2854;42.692;23.364;2023-03-31T13:12:41;6.63;;;1.50;;
5662;SDS011;2854;42.692;23.364;2023-03-31T13:15:17;3.90;;;1.47;;
5662;SDS011;2854;42.692;23.364;2023-03-31T13:17:42;1.90;;;1.43;;
5662;SDS011;2854;42.692;23.364;2023-03-31T13:25:41;7.50;;;1.53;;
5662;SDS011;2854;42.692;23.364;2023-03-31T13:31:06;1.30;;;1.20;;
5662;SDS011;2854;42.692;23.364;2023-03-31T13:38:45;1.73;;;1.20;;
5662;SDS011;2854;42.692;23.364;2023-03-31T13:41:14;1.07;;;0.97;;
5662;SDS011;2854;42.692;23.364;2023-03-31T14:07:11;2.03;;;1.40;;
5662;SDS011;2854;42.692;23.364;2023-03-31T14:09:39;1.47;;;1.33;;
5662;SDS011;2854;42.692;23.364;2023-03-31T14:12:21;1.23;;;1.13;;
5662;SDS011;2854;42.692;23.364;2023-03-31T14:14:51;1.50;;;1.30;;
5662;SDS011;2854;42.692;23.364;2023-03-31T14:17:16;1.83;;;1.70;;
5662;SDS011;2854;42.692;23.364;2023-03-31T14:29:51;2.67;;;2.20;;
5662;SDS011;2854;42.692;23.364;2023-03-31T14:37:23;1.23;;;1.13;;
5662;SDS011;2854;42.692;23.364;2023-03-31T14:39:52;5.50;;;2.43;;
5662;SDS011;2854;42.692;23.364;2023-03-31T14:42:21;1.47;;;1.37;;
5662;SDS011;2854;42.692;23.364;2023-03-31T14:44:47;1.13;;;1.03;;
5662;SDS011;2854;42.692;23.364;2023-03-31T14:47:20;2.60;;;1.30;;
5662;SDS011;2854;42.692;23.364;2023-03-31T14:49:46;1.43;;;1.07;;
5662;SDS011;2854;42.692;23.364;2023-03-31T14:52:16;2.20;;;1.20;;
5662;SDS011;2854;42.692;23.364;2023-03-31T14:54:43;1.20;;;1.10;;
5662;SDS011;2854;42.692;23.364;2023-03-31T14:57:08;4.40;;;1.23;;
5662;SDS011;2854;42.692;23.364;2023-03-31T14:59:35;2.27;;;1.20;;
5662;SDS011;2854;42.692;23.364;2023-03-31T15:02:02;2.13;;;1.33;;
5662;SDS011;2854;42.692;23.364;2023-03-31T15:04:29;2.13;;;1.50;;
5662;SDS011;2854;42.692;23.364;2023-03-31T15:06:54;2.47;;;1.20;;
5662;SDS011;2854;42.692;23.364;2023-03-31T15:09:28;2.47;;;1.53;;
5662;SDS011;2854;42.692;23.364;2023-03-31T15:11:57;0.90;;;0.90;;
5662;SDS011;2854;42.692;23.364;2023-03-31T15:14:26;4.23;;;1.27;;
5662;SDS011;2854;42.692;23.364;2023-03-31T15:16:52;1.53;;;1.20;;
5662;SDS011;2854;42.692;23.364;2023-03-31T15:19:21;2.80;;;1.60;;
5662;SDS011;2854;42.692;23.364;2023-03-31T15:21:54;1.20;;;1.10;;
5662;SDS011;2854;42.692;23.364;2023-03-31T15:24:20;2.03;;;1.10;;
5662;SDS011;2854;42.692;23.364;2023-03-31T15:26:48;3.07;;;1.37;;
5662;SDS011;2854;42.692;23.364;2023-03-31T15:29:22;1.33;;;1.23;;
5662;SDS011;2854;42.692;23.364;2023-03-31T15:31:48;4.10;;;1.30;;
5662;SDS011;2854;42.692;23.364;2023-03-31T15:34:18;1.20;;;1.10;;
5662;SDS011;2854;42.692;23.364;2023-03-31T15:36:45;2.63;;;1.40;;
5662;SDS011;2854;42.692;23.364;2023-03-31T15:39:10;2.20;;;1.87;;
5662;SDS011;2854;42.692;23.364;2023-03-31T15:41:36;2.57;;;1.57;;
5662;SDS011;2854;42.692;23.364;2023-03-31T15:47:07;4.10;;;2.20;;
5662;SDS011;2854;42.692;23.364;2023-03-31T15:49:36;12.30;;;2.23;;
5662;SDS011;2854;42.692;23.364;2023-03-31T15:52:01;3.07;;;1.87;;
5662;SDS011;2854;42.692;23.364;2023-03-31T15:56:52;13.43;;;2.00;;
5662;SDS011;2854;42.692;23.364;2023-03-31T15:59:24;2.73;;;1.67;;
5662;SDS011;2854;42.692;23.364;2023-03-31T16:01:50;2.90;;;1.77;;
5662;SDS011;2854;42.692;23.364;2023-03-31T16:04:16;4.33;;;2.03;;
5662;SDS011;2854;42.692;23.364;2023-03-31T16:07:01;1.93;;;1.67;;
5662;SDS011;2854;42.692;23.364;2023-03-31T16:09:51;5.67;;;1.90;;
5662;SDS011;2854;42.692;23.364;2023-03-31T16:12:28;2.30;;;1.80;;
5662;SDS011;2854;42.692;23.364;2023-03-31T16:14:56;5.40;;;2.03;;
5662;SDS011;2854;42.692;23.364;2023-03-31T16:17:33;7.50;;;1.80;;
5662;SDS011;2854;42.692;23.364;2023-03-31T16:20:02;3.93;;;2.50;;
5662;SDS011;2854;42.692;23.364;2023-03-31T16:22:33;1.70;;;1.60;;
5662;SDS011;2854;42.692;23.364;2023-03-31T16:25:01;1.73;;;1.50;;
5662;SDS011;2854;42.692;23.364;2023-03-31T16:27:26;2.20;;;2.00;;
5662;SDS011;2854;42.692;23.364;2023-03-31T16:30:04;3.67;;;2.40;;
5662;SDS011;2854;42.692;23.364;2023-03-31T16:32:29;3.47;;;2.67;;
5662;SDS011;2854;42.692;23.364;2023-03-31T16:34:55;3.70;;;2.87;;
5662;SDS011;2854;42.692;23.364;2023-03-31T16:37:21;4.37;;;3.97;;
5662;SDS011;2854;42.692;23.364;2023-03-31T16:39:47;5.90;;;3.70;;
5662;SDS011;2854;42.692;23.364;2023-03-31T16:42:13;3.93;;;3.63;;
5662;SDS011;2854;42.692;23.364;2023-03-31T16:44:38;5.63;;;3.20;;
5662;SDS011;2854;42.692;23.364;2023-03-31T16:47:03;7.10;;;2.93;;
5662;SDS011;2854;42.692;23.364;2023-03-31T16:49:28;5.97;;;3.83;;
5662;SDS011;2854;42.692;23.364;2023-03-31T16:51:54;7.17;;;4.40;;
5662;SDS011;2854;42.692;23.364;2023-03-31T16:54:19;3.40;;;3.10;;
5662;SDS011;2854;42.692;23.364;2023-03-31T16:56:45;9.70;;;3.90;;
5662;SDS011;2854;42.692;23.364;2023-03-31T16:59:12;7.40;;;4.27;;
5662;SDS011;2854;42.692;23.364;2023-03-31T17:01:37;9.60;;;4.50;;
5662;SDS011;2854;42.692;23.364;2023-03-31T17:04:03;6.97;;;4.60;;
5662;SDS011;2854;42.692;23.364;2023-03-31T17:06:28;4.93;;;4.30;;
5662;SDS011;2854;42.692;23.364;2023-03-31T17:08:53;5.30;;;3.80;;
5662;SDS011;2854;42.692;23.364;2023-03-31T17:11:18;8.53;;;4.17;;
5662;SDS011;2854;42.692;23.364;2023-03-31T17:13:43;6.83;;;3.27;;
5662;SDS011;2854;42.692;23.364;2023-03-31T17:16:10;5.30;;;3.50;;
5662;SDS011;2854;42.692;23.364;2023-03-31T17:18:36;9.63;;;2.77;;
5662;SDS011;2854;42.692;23.364;2023-03-31T17:21:08;3.87;;;2.30;;
5662;SDS011;2854;42.692;23.364;2023-03-31T17:23:34;11.43;;;3.07;;
5662;SDS011;2854;42.692;23.364;2023-03-31T17:26:00;4.73;;;3.63;;
5662;SDS011;2854;42.692;23.364;2023-03-31T17:28:26;7.97;;;4.13;;
5662;SDS011;2854;42.692;23.364;2023-03-31T17:30:52;6.33;;;3.90;;
5662;SDS011;2854;42.692;23.364;2023-03-31T17:33:17;9.43;;;4.63;;
5662;SDS011;2854;42.692;23.364;2023-03-31T17:35:43;6.10;;;3.40;;
5662;SDS011;2854;42.692;23.364;2023-03-31T17:38:08;4.23;;;3.27;;
5662;SDS011;2854;42.692;23.364;2023-03-31T17:40:34;4.17;;;3.77;;
5662;SDS011;2854;42.692;23.364;2023-03-31T17:43:00;4.30;;;3.20;;
5662;SDS011;2854;42.692;23.364;2023-03-31T17:45:27;7.70;;;5.83;;
5662;SDS011;2854;42.692;23.364;2023-03-31T17:47:53;9.53;;;3.63;;
5662;SDS011;2854;42.692;23.364;2023-03-31T17:50:18;4.33;;;3.47;;
5662;SDS011;2854;42.692;23.364;2023-03-31T17:52:44;10.80;;;4.03;;
5662;SDS011;2854;42.692;23.364;2023-03-31T17:55:10;5.57;;;3.23;;
5662;SDS011;2854;42.692;23.364;2023-03-31T17:57:36;6.03;;;2.90;;
5662;SDS011;2854;42.692;23.364;2023-03-31T18:00:04;3.77;;;3.20;;
5662;SDS011;2854;42.692;23.364;2023-03-31T18:02:34;9.07;;;4.17;;
5662;SDS011;2854;42.692;23.364;2023-03-31T18:04:59;7.93;;;4.13;;
5662;SDS011;2854;42.692;23.364;2023-03-31T18:07:25;10.20;;;4.23;;
5662;SDS011;2854;42.692;23.364;2023-03-31T18:09:51;6.60;;;3.60;;
5662;SDS011;2854;42.692;23.364;2023-03-31T18:12:16;13.37;;;5.07;;
5662;SDS011;2854;42.692;23.364;2023-03-31T18:14:41;5.80;;;3.80;;